Aérodrome :
LOGIN :

S'inscrire | Disclaimer

   EN    FR    IT 

 










Légende :    VFR   VFR Marginal   IFR   IFR Intensif   IFR Très Intensif
Visi : 
Plafond : 
>= 8 km
>= 3000ft
5 à 8 km
1000 à 3000 ft
1500m à 5 km
500 à 1000 ft
800 à 1500m
200 à 500 ft
< 800m
< 200 ft
Symboles :   Orages  Brouillard  Fortes neiges  Fortes précipitations  Vent > 20 kt
SIGMETs :   Divers  Orages  Givrage  Turbulence  Onde Orograph.  Cendres Volcan.







- Altitude de l'aérodrome : 306 ft
- Code IATA : EMA
- Voir les cartes d'approche


EGNX - Nottingham East Midlands

DERNIER METAR :
  • 231650Z 20008KT 9999 FEW010 BKN028 15/14 Q1014

METARs EXPIRÉS :
  • 231620Z 20010KT 9999 SCT008 BKN025 15/14 Q1014
  • 231550Z 20009KT 9999 SCT009 BKN025 15/14 Q1014
  • 231520Z 20010KT 9999 BKN016 15/14 Q1014
  • 231450Z 20010KT 9999 FEW008 BKN016 15/14 Q1014
  • 231420Z 21011KT 9999 VCSH FEW008 BKN010 15/13 Q1014

TAF TAF EGNX
Valide du 23 à 12h jusqu'au 24 à 12h UTC


231102Z 2312/2412 20011KT 9999 SCT009 BKN040
TEMPO 2312/2316 8000 -RA BKN010
PROB40
TEMPO 2312/2316 3000 RA BR BKN005
TEMPO 2404/2412 8000 -RA BKN009
PROB30
TEMPO 2404/2408 4000 RADZ BR BKN004
ATIS : +44 1332 852 852 (ext 3201)
Pas de NOTAMs connus pour ce terrain.



MET'MAP, la Météo Aéronautique d'un coup d'oeil ! - Copyright ORBIFLY Décembre 2007 - Disclaimer

ORBIFLY MET'MAP TEAM :

Programmation & Développement : Alexandra Zaïnal
Conception & Développement : Baudouin d'Aumeries
Co-Programmation & Développement : Marc-Olivier Méhu
Soutien technique & logistique : Manuel Goepfert

Contact : metmap@orbifly.com




SOURCES & CREDITS :

   NOAA